createdAt,value
2024-02-27T00:00:02.835Z,5.43
2024-02-27T00:02:56.245Z,6.10
2024-02-27T00:05:43.098Z,5.87
2024-02-27T00:08:30.069Z,6.60
2024-02-27T00:11:18.511Z,5.80
2024-02-27T00:14:05.303Z,6.13
2024-02-27T00:16:52.237Z,6.80
2024-02-27T00:19:39.220Z,6.23
2024-02-27T00:22:26.033Z,6.47
2024-02-27T00:25:13.363Z,6.80
2024-02-27T00:28:01.482Z,6.23
2024-02-27T00:30:48.476Z,6.00
2024-02-27T00:33:35.557Z,6.67
2024-02-27T00:36:22.596Z,6.77
2024-02-27T00:39:09.594Z,6.67
2024-02-27T00:41:58.623Z,5.67
2024-02-27T00:44:47.028Z,6.37
2024-02-27T00:47:34.018Z,5.53
2024-02-27T00:50:20.785Z,5.77
2024-02-27T00:53:08.479Z,5.33
2024-02-27T00:55:55.270Z,5.53
2024-02-27T00:58:44.937Z,5.50
2024-02-27T01:01:33.442Z,5.60
2024-02-27T01:04:20.221Z,4.93
2024-02-27T01:07:07.502Z,5.30
2024-02-27T01:09:54.830Z,5.40
2024-02-27T01:12:41.688Z,4.93
2024-02-27T01:15:28.549Z,5.20
2024-02-27T01:18:17.123Z,5.07
2024-02-27T01:21:06.359Z,5.23
2024-02-27T01:23:52.975Z,4.90
2024-02-27T01:26:39.947Z,4.70
2024-02-27T01:29:27.209Z,4.70
2024-02-27T01:32:13.763Z,5.00
2024-02-27T01:35:02.393Z,4.23
2024-02-27T01:37:49.758Z,5.13
2024-02-27T01:40:36.506Z,5.20
2024-02-27T01:43:24.094Z,4.73
2024-02-27T01:46:16.195Z,5.20
2024-02-27T01:49:04.222Z,4.00
2024-02-27T01:51:52.446Z,4.60
2024-02-27T01:54:39.335Z,4.50
2024-02-27T01:57:25.934Z,4.30
2024-02-27T02:00:16.024Z,4.50
2024-02-27T02:03:03.514Z,4.73
2024-02-27T02:05:50.672Z,4.53
2024-02-27T02:08:39.404Z,5.20
2024-02-27T02:11:26.071Z,5.37
2024-02-27T02:14:13.032Z,4.80
2024-02-27T02:16:59.692Z,5.07
2024-02-27T02:19:46.720Z,5.10
2024-02-27T02:22:35.569Z,4.77
2024-02-27T02:25:23.148Z,4.87
2024-02-27T02:28:10.441Z,4.50
2024-02-27T02:30:57.378Z,4.60
2024-02-27T02:33:44.407Z,5.10
2024-02-27T02:36:31.157Z,4.27
2024-02-27T02:39:19.251Z,4.37
2024-02-27T02:42:06.464Z,4.63
2024-02-27T02:44:53.016Z,4.37
2024-02-27T02:47:39.984Z,4.10
2024-02-27T02:50:30.902Z,4.60
2024-02-27T02:53:17.812Z,4.10
2024-02-27T02:56:06.896Z,4.00
2024-02-27T02:58:53.801Z,4.13
2024-02-27T03:01:40.805Z,3.70
2024-02-27T03:04:27.697Z,4.30
2024-02-27T03:07:14.510Z,4.40
2024-02-27T03:10:01.288Z,4.27
2024-02-27T03:12:49.627Z,4.10
2024-02-27T03:15:36.587Z,3.47
2024-02-27T03:18:23.613Z,3.90
2024-02-27T03:21:10.585Z,3.80
2024-02-27T03:23:57.118Z,4.10
2024-02-27T03:26:43.946Z,4.50
2024-02-27T03:29:32.546Z,3.97
2024-02-27T03:32:21.193Z,4.87
2024-02-27T03:35:10.006Z,3.90
2024-02-27T03:37:56.825Z,5.00
2024-02-27T03:40:43.596Z,4.83
2024-02-27T03:43:31.121Z,5.50
2024-02-27T03:46:19.410Z,5.17
2024-02-27T03:49:06.125Z,5.87
2024-02-27T03:51:54.465Z,6.50
2024-02-27T03:54:41.398Z,6.97
2024-02-27T03:57:28.661Z,6.57
2024-02-27T04:00:16.304Z,6.93
2024-02-27T04:03:04.426Z,6.57
2024-02-27T04:05:50.930Z,6.97
2024-02-27T04:08:37.827Z,6.37
2024-02-27T04:11:24.887Z,6.70
2024-02-27T04:14:11.647Z,7.73
2024-02-27T04:16:58.551Z,7.93
2024-02-27T04:19:47.069Z,6.80
2024-02-27T04:22:34.433Z,7.23
2024-02-27T04:25:21.110Z,8.27
2024-02-27T04:28:08.059Z,8.30
2024-02-27T04:30:55.079Z,7.07
2024-02-27T04:33:42.250Z,6.90
2024-02-27T04:36:30.541Z,8.20
2024-02-27T04:39:17.865Z,7.53
2024-02-27T04:42:05.360Z,6.97
2024-02-27T04:44:52.097Z,7.80
2024-02-27T04:47:39.212Z,8.30
2024-02-27T04:50:26.020Z,7.47
2024-02-27T04:53:14.092Z,8.10
2024-02-27T04:56:01.016Z,8.20
2024-02-27T04:58:47.964Z,8.80
2024-02-27T05:01:34.778Z,8.47
2024-02-27T05:04:21.727Z,7.70
2024-02-27T05:07:08.547Z,8.33
2024-02-27T05:09:56.619Z,7.33
2024-02-27T05:12:43.387Z,8.67
2024-02-27T05:15:30.472Z,8.27
2024-02-27T05:18:17.423Z,8.23
2024-02-27T05:21:06.056Z,7.80
2024-02-27T05:23:52.635Z,9.03
2024-02-27T05:26:40.813Z,8.70
2024-02-27T05:29:27.794Z,9.20
2024-02-27T05:32:14.497Z,7.80
2024-02-27T05:35:01.676Z,8.67
2024-02-27T05:37:50.050Z,9.13
2024-02-27T05:40:36.626Z,8.03
2024-02-27T05:43:24.883Z,8.77
2024-02-27T05:46:12.052Z,8.20
2024-02-27T05:48:59.865Z,9.00
2024-02-27T05:51:46.579Z,7.93
2024-02-27T05:54:33.504Z,8.37
2024-02-27T05:57:20.559Z,9.10
2024-02-27T06:00:11.234Z,8.87
2024-02-27T06:02:59.049Z,10.87
2024-02-27T06:05:46.965Z,9.60
2024-02-27T06:08:35.830Z,9.97
2024-02-27T06:11:22.478Z,8.77
2024-02-27T06:14:09.331Z,10.57
2024-02-27T06:16:57.705Z,9.27
2024-02-27T06:19:50.953Z,9.63
2024-02-27T06:22:37.202Z,10.03
2024-02-27T06:25:24.207Z,10.27
2024-02-27T06:28:11.144Z,10.67
2024-02-27T06:30:58.150Z,10.20
2024-02-27T06:33:46.482Z,10.60
2024-02-27T06:36:33.385Z,10.20
2024-02-27T06:39:19.942Z,11.30
2024-02-27T06:42:07.096Z,11.60
2024-02-27T06:44:53.615Z,12.37
2024-02-27T06:47:41.667Z,12.87
2024-02-27T06:50:31.412Z,11.83
2024-02-27T06:53:18.631Z,12.43
2024-02-27T06:56:06.091Z,13.67
2024-02-27T06:58:55.238Z,14.50
2024-02-27T07:01:42.036Z,14.03
2024-02-27T07:04:28.933Z,14.10
2024-02-27T07:07:17.340Z,12.90
2024-02-27T07:10:04.338Z,13.83
2024-02-27T07:12:51.220Z,13.50
2024-02-27T07:15:41.021Z,12.53
2024-02-27T07:18:30.062Z,13.53
2024-02-27T07:21:20.696Z,14.27
2024-02-27T07:24:09.109Z,13.87
2024-02-27T07:26:55.721Z,13.13
2024-02-27T07:29:42.499Z,13.53
2024-02-27T07:32:30.604Z,13.53
2024-02-27T07:35:17.399Z,12.40
2024-02-27T07:38:04.201Z,12.67
2024-02-27T07:40:53.313Z,13.87
2024-02-27T07:43:40.307Z,12.63
2024-02-27T07:46:27.134Z,13.57
2024-02-27T07:49:14.014Z,13.70
2024-02-27T07:52:00.967Z,12.87
2024-02-27T07:54:47.907Z,12.00
2024-02-27T07:57:36.126Z,13.40
2024-02-27T08:00:22.913Z,10.37
2024-02-27T08:03:09.657Z,14.40
2024-02-27T08:05:57.010Z,13.13
2024-02-27T08:08:43.906Z,11.73
2024-02-27T08:11:31.005Z,13.80
2024-02-27T08:14:19.155Z,13.33
2024-02-27T08:17:07.257Z,12.00
2024-02-27T08:19:54.228Z,11.57
2024-02-27T08:22:50.574Z,13.10
2024-02-27T08:25:40.062Z,12.60
2024-02-27T08:28:27.587Z,11.53
2024-02-27T08:31:15.884Z,12.27
2024-02-27T08:34:05.745Z,12.17
2024-02-27T08:36:52.579Z,10.97
2024-02-27T08:39:39.496Z,11.73
2024-02-27T08:42:27.271Z,11.30
2024-02-27T08:45:14.212Z,11.80
2024-02-27T08:48:04.291Z,12.03
2024-02-27T08:50:51.265Z,11.33
2024-02-27T08:53:38.448Z,11.17
2024-02-27T08:56:25.329Z,10.73
2024-02-27T08:59:12.286Z,11.67
2024-02-27T09:01:59.088Z,10.40
2024-02-27T09:04:47.425Z,11.23
2024-02-27T09:07:34.298Z,9.57
2024-02-27T09:10:21.753Z,10.70
2024-02-27T09:13:08.653Z,11.00
2024-02-27T09:15:55.508Z,10.80
2024-02-27T09:18:45.054Z,11.83
2024-02-27T09:21:33.909Z,10.03
2024-02-27T09:24:20.809Z,10.40
2024-02-27T09:27:07.667Z,10.60
2024-02-27T09:29:54.759Z,10.57
2024-02-27T09:32:41.810Z,10.30
2024-02-27T09:35:28.557Z,10.53
2024-02-27T09:38:17.234Z,9.80
2024-02-27T09:41:03.800Z,10.40
2024-02-27T09:43:55.780Z,10.97
2024-02-27T09:46:44.275Z,10.33
2024-02-27T09:49:37.224Z,10.67
2024-02-27T09:52:31.907Z,9.20
2024-02-27T09:55:21.703Z,10.27
2024-02-27T09:58:10.028Z,10.23
2024-02-27T10:01:07.314Z,10.30
2024-02-27T10:03:57.685Z,9.60
2024-02-27T10:06:45.347Z,9.20
2024-02-27T10:09:37.638Z,10.17
2024-02-27T10:12:26.301Z,9.80
2024-02-27T10:15:13.399Z,8.63
2024-02-27T10:18:00.101Z,9.60
2024-02-27T10:20:47.044Z,9.33
2024-02-27T10:23:36.835Z,9.60
2024-02-27T10:26:24.449Z,8.57
2024-02-27T10:29:14.207Z,8.57
2024-02-27T10:32:02.655Z,8.60
2024-02-27T10:34:54.953Z,7.97
2024-02-27T10:37:42.548Z,8.40
2024-02-27T10:40:31.897Z,8.80
2024-02-27T10:43:20.993Z,8.90
2024-02-27T10:46:09.325Z,8.37
2024-02-27T10:48:56.268Z,7.87
2024-02-27T10:51:44.211Z,7.90
2024-02-27T10:54:34.576Z,7.97
2024-02-27T10:57:21.737Z,7.57
2024-02-27T11:00:12.233Z,7.47
2024-02-27T11:03:02.466Z,8.00
2024-02-27T11:05:50.069Z,7.13
2024-02-27T11:08:38.116Z,8.57
2024-02-27T11:11:26.544Z,8.50
2024-02-27T11:14:15.804Z,7.53
2024-02-27T11:17:07.076Z,6.80
2024-02-27T11:19:55.607Z,7.23
2024-02-27T11:22:43.453Z,6.40
2024-02-27T11:25:31.110Z,7.60
2024-02-27T11:28:20.150Z,7.20
2024-02-27T11:31:07.173Z,7.67
2024-02-27T11:33:54.434Z,6.23
2024-02-27T11:36:42.567Z,7.47
2024-02-27T11:39:32.855Z,6.50
2024-02-27T11:42:26.584Z,7.30
2024-02-27T11:45:15.662Z,6.37
2024-02-27T11:48:02.876Z,6.50
2024-02-27T11:50:50.119Z,7.33
2024-02-27T11:53:40.294Z,6.03
2024-02-27T11:56:27.507Z,7.03
2024-02-27T11:59:14.233Z,6.57
2024-02-27T12:02:04.290Z,7.73
2024-02-27T12:04:52.785Z,6.77
2024-02-27T12:07:39.499Z,6.87
2024-02-27T12:10:27.831Z,6.50
2024-02-27T12:13:17.291Z,6.80
2024-02-27T12:16:04.007Z,7.33
2024-02-27T12:18:50.916Z,6.77
2024-02-27T12:21:37.798Z,7.87
2024-02-27T12:24:24.498Z,7.83
2024-02-27T12:27:15.846Z,8.00
2024-02-27T12:30:06.449Z,7.20
2024-02-27T12:32:53.980Z,7.30
2024-02-27T12:35:40.311Z,7.20
2024-02-27T12:38:27.415Z,7.90
2024-02-27T12:41:14.404Z,8.20
2024-02-27T12:44:02.917Z,6.73
2024-02-27T12:46:49.854Z,7.80
2024-02-27T12:49:37.111Z,8.23
2024-02-27T12:52:23.785Z,7.97
2024-02-27T12:55:14.062Z,6.83
2024-02-27T12:58:00.704Z,7.43
2024-02-27T13:00:49.680Z,7.70
2024-02-27T13:03:37.726Z,7.13
2024-02-27T13:06:24.657Z,7.13
2024-02-27T13:09:12.384Z,8.07
2024-02-27T13:12:07.360Z,8.20
2024-02-27T13:14:54.261Z,9.27
2024-02-27T13:17:42.602Z,8.50
2024-02-27T13:20:29.746Z,9.03
2024-02-27T13:23:24.522Z,8.43
2024-02-27T13:26:13.099Z,8.43
2024-02-27T13:29:00.114Z,7.33
2024-02-27T13:31:47.286Z,9.43
2024-02-27T13:34:35.406Z,8.53
2024-02-27T13:37:22.101Z,9.27
2024-02-27T13:40:10.122Z,7.93
2024-02-27T13:42:57.422Z,9.30
2024-02-27T13:45:44.146Z,8.87
2024-02-27T13:48:30.743Z,9.17
2024-02-27T13:51:19.155Z,9.30
2024-02-27T13:54:07.493Z,8.57
2024-02-27T13:56:54.335Z,8.20
2024-02-27T13:59:41.157Z,7.40
2024-02-27T14:02:28.183Z,8.70
2024-02-27T14:05:15.215Z,7.13
2024-02-27T14:08:03.230Z,7.83
2024-02-27T14:10:50.456Z,9.07
2024-02-27T14:13:39.878Z,8.60
2024-02-27T14:16:27.962Z,10.27
2024-02-27T14:19:15.008Z,9.00
2024-02-27T14:22:01.731Z,8.33
2024-02-27T14:24:50.041Z,8.37
2024-02-27T14:27:36.882Z,8.80
2024-02-27T14:30:24.045Z,9.63
2024-02-27T14:33:10.730Z,8.70
2024-02-27T14:35:57.470Z,9.10
2024-02-27T14:38:44.523Z,8.30
2024-02-27T14:41:32.637Z,8.50
2024-02-27T14:44:19.615Z,8.40
2024-02-27T14:47:06.676Z,8.33
2024-02-27T14:49:53.697Z,9.13
2024-02-27T14:52:40.717Z,8.67
2024-02-27T14:55:27.541Z,8.30
2024-02-27T14:58:18.142Z,8.43
2024-02-27T15:01:08.178Z,8.53
2024-02-27T15:03:57.816Z,7.77
2024-02-27T15:06:45.686Z,7.97
2024-02-27T15:09:32.490Z,8.90
2024-02-27T15:12:21.155Z,9.47
2024-02-27T15:15:10.020Z,9.03
2024-02-27T15:17:56.893Z,8.87
2024-02-27T15:20:43.708Z,8.97
2024-02-27T15:23:31.505Z,8.30
2024-02-27T15:26:18.484Z,9.23
2024-02-27T15:29:05.385Z,8.70
2024-02-27T15:31:53.691Z,9.53
2024-02-27T15:34:41.078Z,8.83
2024-02-27T15:37:28.057Z,9.17
2024-02-27T15:40:15.592Z,8.57
2024-02-27T15:43:02.626Z,9.30
2024-02-27T15:45:49.649Z,8.83
2024-02-27T15:48:38.394Z,8.90
2024-02-27T15:51:25.657Z,8.57
2024-02-27T15:54:12.994Z,9.80
2024-02-27T15:56:59.481Z,9.50
2024-02-27T15:59:46.650Z,9.13
2024-02-27T16:02:34.077Z,8.87
2024-02-27T16:05:28.190Z,9.20
2024-02-27T16:08:14.949Z,8.50
2024-02-27T16:11:02.946Z,9.90
2024-02-27T16:13:49.693Z,8.40
2024-02-27T16:16:36.741Z,10.30
2024-02-27T16:19:23.439Z,9.30
2024-02-27T16:22:13.213Z,9.10
2024-02-27T16:25:00.046Z,8.53
2024-02-27T16:27:46.906Z,9.13
2024-02-27T16:30:34.028Z,8.47
2024-02-27T16:33:21.150Z,8.50
2024-02-27T16:36:09.191Z,8.23
2024-02-27T16:38:57.472Z,8.53
2024-02-27T16:41:44.513Z,8.73
2024-02-27T16:44:31.185Z,9.10
2024-02-27T16:47:19.473Z,8.17
2024-02-27T16:50:07.286Z,8.50
2024-02-27T16:52:54.469Z,8.47
2024-02-27T16:55:43.165Z,7.37
2024-02-27T16:58:29.644Z,8.70
2024-02-27T17:01:16.712Z,7.10
2024-02-27T17:04:03.662Z,8.13
2024-02-27T17:06:50.606Z,8.50
2024-02-27T17:09:37.530Z,7.87
2024-02-27T17:12:25.897Z,8.17
2024-02-27T17:15:13.319Z,8.47
2024-02-27T17:18:00.161Z,7.43
2024-02-27T17:20:47.066Z,7.67
2024-02-27T17:23:34.053Z,9.33
2024-02-27T17:26:20.926Z,8.47
2024-02-27T17:29:09.108Z,8.77
2024-02-27T17:31:56.167Z,8.67
2024-02-27T17:34:43.423Z,8.77
2024-02-27T17:37:30.400Z,8.57
2024-02-27T17:40:17.513Z,7.53
2024-02-27T17:43:04.353Z,8.10
2024-02-27T17:45:52.542Z,7.97
2024-02-27T17:48:39.618Z,7.60
2024-02-27T17:51:26.431Z,7.90
2024-02-27T17:54:13.522Z,8.57
2024-02-27T17:57:00.188Z,7.87
2024-02-27T17:59:47.555Z,8.20
2024-02-27T18:02:35.789Z,8.23
2024-02-27T18:05:22.747Z,7.93
2024-02-27T18:08:09.583Z,8.17
2024-02-27T18:10:56.652Z,8.63
2024-02-27T18:13:43.410Z,9.03
2024-02-27T18:16:30.568Z,7.73
2024-02-27T18:19:19.207Z,8.47
2024-02-27T18:22:07.074Z,8.23
2024-02-27T18:24:54.012Z,7.97
2024-02-27T18:27:41.305Z,8.30
2024-02-27T18:30:28.471Z,7.93
2024-02-27T18:33:16.458Z,8.40
2024-02-27T18:36:04.687Z,8.70
2024-02-27T18:38:51.238Z,9.30
2024-02-27T18:41:38.387Z,8.70
2024-02-27T18:44:25.616Z,8.87
2024-02-27T18:47:12.948Z,8.60
2024-02-27T18:50:03.165Z,8.40
2024-02-27T18:52:51.463Z,8.83
2024-02-27T18:55:38.631Z,8.57
2024-02-27T18:58:25.622Z,8.30
2024-02-27T19:01:12.517Z,9.20
2024-02-27T19:03:59.495Z,9.10
2024-02-27T19:06:46.667Z,9.00
2024-02-27T19:09:34.932Z,8.07
2024-02-27T19:12:23.773Z,8.57
2024-02-27T19:15:10.989Z,8.53
2024-02-27T19:17:58.561Z,8.87
2024-02-27T19:20:45.471Z,9.27
2024-02-27T19:23:32.339Z,8.83
2024-02-27T19:26:20.507Z,9.03
2024-02-27T19:29:07.369Z,8.97
2024-02-27T19:31:54.570Z,8.43
2024-02-27T19:34:41.391Z,8.57
2024-02-27T19:37:28.108Z,8.63
2024-02-27T19:40:16.247Z,9.03
2024-02-27T19:43:04.252Z,8.33
2024-02-27T19:45:51.261Z,8.33
2024-02-27T19:48:38.088Z,8.57
2024-02-27T19:51:25.021Z,9.20
2024-02-27T19:54:11.925Z,9.37
2024-02-27T19:56:58.784Z,8.30
2024-02-27T19:59:48.385Z,8.10
2024-02-27T20:02:35.069Z,8.47
2024-02-27T20:05:21.908Z,7.83
2024-02-27T20:08:08.849Z,8.00
2024-02-27T20:10:55.628Z,8.33
2024-02-27T20:13:42.858Z,7.47
2024-02-27T20:16:30.987Z,8.30
2024-02-27T20:19:17.688Z,7.83
2024-02-27T20:22:04.755Z,8.03
2024-02-27T20:24:51.584Z,8.77
2024-02-27T20:27:38.687Z,8.30
2024-02-27T20:30:26.802Z,7.07
2024-02-27T20:33:14.863Z,6.87
2024-02-27T20:36:02.241Z,8.00
2024-02-27T20:38:49.224Z,7.30
2024-02-27T20:41:36.304Z,7.97
2024-02-27T20:44:22.703Z,7.87
2024-02-27T20:47:09.662Z,7.13
2024-02-27T20:49:57.903Z,7.27
2024-02-27T20:52:44.817Z,7.87
2024-02-27T20:55:31.890Z,8.03
2024-02-27T20:58:18.800Z,7.43
2024-02-27T21:01:05.760Z,8.23
2024-02-27T21:03:52.596Z,8.03
2024-02-27T21:06:40.738Z,8.30
2024-02-27T21:09:27.615Z,7.50
2024-02-27T21:12:14.267Z,7.33
2024-02-27T21:15:02.067Z,7.40
2024-02-27T21:17:48.885Z,8.07
2024-02-27T21:20:37.974Z,7.47
2024-02-27T21:23:26.310Z,7.53
2024-02-27T21:26:13.225Z,7.80
2024-02-27T21:28:59.877Z,8.17
2024-02-27T21:31:47.797Z,7.43
2024-02-27T21:34:34.872Z,8.10
2024-02-27T21:37:21.646Z,8.73
2024-02-27T21:40:11.571Z,7.77
2024-02-27T21:42:58.656Z,8.10
2024-02-27T21:45:45.643Z,7.80
2024-02-27T21:48:32.206Z,7.60
2024-02-27T21:51:19.106Z,7.93
2024-02-27T21:54:05.975Z,7.40
2024-02-27T21:56:54.131Z,7.17
2024-02-27T21:59:43.090Z,6.80
2024-02-27T22:02:29.900Z,6.90
2024-02-27T22:05:18.348Z,7.27
2024-02-27T22:08:06.468Z,7.80
2024-02-27T22:10:53.123Z,7.40
2024-02-27T22:13:41.404Z,6.90
2024-02-27T22:16:28.161Z,6.03
2024-02-27T22:19:14.948Z,7.20
2024-02-27T22:22:01.868Z,7.13
2024-02-27T22:24:48.901Z,6.97
2024-02-27T22:27:35.659Z,7.07
2024-02-27T22:30:23.924Z,6.80
2024-02-27T22:33:11.788Z,7.90
2024-02-27T22:35:58.586Z,7.20
2024-02-27T22:38:45.506Z,8.00
2024-02-27T22:41:32.460Z,7.17
2024-02-27T22:44:19.285Z,7.10
2024-02-27T22:47:08.352Z,6.73
2024-02-27T22:49:55.183Z,7.63
2024-02-27T22:52:42.065Z,7.47
2024-02-27T22:55:28.845Z,7.17
2024-02-27T22:58:17.243Z,8.13
2024-02-27T23:01:04.242Z,6.83
2024-02-27T23:03:52.347Z,7.87
2024-02-27T23:06:39.611Z,8.07
2024-02-27T23:09:26.720Z,6.83
2024-02-27T23:12:13.661Z,6.73
2024-02-27T23:15:00.754Z,7.00
2024-02-27T23:17:47.983Z,6.47
2024-02-27T23:20:36.245Z,6.70
2024-02-27T23:23:23.034Z,6.83
2024-02-27T23:26:09.958Z,7.30
2024-02-27T23:28:56.741Z,7.50
2024-02-27T23:31:43.601Z,7.13
2024-02-27T23:34:30.485Z,7.33
2024-02-27T23:37:18.836Z,6.83
2024-02-27T23:40:06.947Z,6.37
2024-02-27T23:42:53.890Z,7.37
2024-02-27T23:45:40.736Z,8.20
2024-02-27T23:48:27.541Z,6.77
2024-02-27T23:51:14.414Z,6.50
2024-02-27T23:54:02.528Z,6.30
2024-02-27T23:56:49.542Z,6.80
2024-02-27T23:59:36.368Z,6.90
